sensor_id;sensor_type;location;lat;lon;timestamp;pressure;altitude;pressure_sealevel;temperature;humidity
83514;BME280;73447;53.262;10.424;2024-03-22T00:03:22;66514.81;;;-147.79;100.00
83514;BME280;73447;53.262;10.424;2024-03-22T00:06:47;66514.81;;;-147.79;100.00
83514;BME280;73447;53.262;10.424;2024-03-22T00:10:11;66514.81;;;-147.79;100.00
83514;BME280;73447;53.262;10.424;2024-03-22T00:13:35;66514.81;;;-147.79;100.00
83514;BME280;73447;53.262;10.424;2024-03-22T00:16:59;66514.81;;;-147.79;100.00
83514;BME280;73447;53.262;10.424;2024-03-22T00:20:22;66514.81;;;-147.79;100.00
83514;BME280;73447;53.262;10.424;2024-03-22T00:23:46;66514.81;;;-147.79;100.00
83514;BME280;73447;53.262;10.424;2024-03-22T00:27:10;66514.81;;;-147.79;100.00
83514;BME280;73447;53.262;10.424;2024-03-22T00:30:36;66514.81;;;-147.79;100.00
83514;BME280;73447;53.262;10.424;2024-03-22T00:34:00;66514.81;;;-147.79;100.00
83514;BME280;73447;53.262;10.424;2024-03-22T00:37:24;66514.81;;;-147.79;100.00
83514;BME280;73447;53.262;10.424;2024-03-22T00:40:47;66514.81;;;-147.79;100.00
83514;BME280;73447;53.262;10.424;2024-03-22T00:44:12;66514.81;;;-147.79;100.00
83514;BME280;73447;53.262;10.424;2024-03-22T00:47:36;66514.81;;;-147.79;100.00
83514;BME280;73447;53.262;10.424;2024-03-22T00:50:59;66514.81;;;-147.79;100.00
83514;BME280;73447;53.262;10.424;2024-03-22T00:54:23;66514.81;;;-147.79;100.00
83514;BME280;73447;53.262;10.424;2024-03-22T00:57:47;66514.81;;;-147.79;100.00
83514;BME280;73447;53.262;10.424;2024-03-22T01:01:11;66514.81;;;-147.79;100.00
83514;BME280;73447;53.262;10.424;2024-03-22T01:04:35;66514.81;;;-147.79;100.00
83514;BME280;73447;53.262;10.424;2024-03-22T01:07:59;66514.81;;;-147.79;100.00
83514;BME280;73447;53.262;10.424;2024-03-22T01:11:23;66514.81;;;-147.79;100.00
83514;BME280;73447;53.262;10.424;2024-03-22T01:14:47;66514.81;;;-147.79;100.00
83514;BME280;73447;53.262;10.424;2024-03-22T01:18:10;66514.81;;;-147.79;100.00
83514;BME280;73447;53.262;10.424;2024-03-22T01:21:34;66514.81;;;-147.79;100.00
83514;BME280;73447;53.262;10.424;2024-03-22T01:24:59;66514.81;;;-147.79;100.00
83514;BME280;73447;53.262;10.424;2024-03-22T01:28:23;66514.81;;;-147.79;100.00
83514;BME280;73447;53.262;10.424;2024-03-22T01:31:47;66514.81;;;-147.79;100.00
83514;BME280;73447;53.262;10.424;2024-03-22T01:35:11;66514.81;;;-147.79;100.00
83514;BME280;73447;53.262;10.424;2024-03-22T01:38:35;66514.81;;;-147.79;100.00
83514;BME280;73447;53.262;10.424;2024-03-22T01:41:59;66514.81;;;-147.79;100.00
83514;BME280;73447;53.262;10.424;2024-03-22T01:45:27;66514.81;;;-147.79;100.00
83514;BME280;73447;53.262;10.424;2024-03-22T01:48:55;66514.81;;;-147.79;100.00
83514;BME280;73447;53.262;10.424;2024-03-22T01:52:19;66514.81;;;-147.79;100.00
83514;BME280;73447;53.262;10.424;2024-03-22T01:55:43;66514.81;;;-147.79;100.00
83514;BME280;73447;53.262;10.424;2024-03-22T01:59:07;66514.81;;;-147.79;100.00
83514;BME280;73447;53.262;10.424;2024-03-22T02:02:31;66514.81;;;-147.79;100.00
83514;BME280;73447;53.262;10.424;2024-03-22T02:05:55;66514.81;;;-147.79;100.00
83514;BME280;73447;53.262;10.424;2024-03-22T02:09:19;66514.81;;;-147.79;100.00
83514;BME280;73447;53.262;10.424;2024-03-22T02:12:44;66514.81;;;-147.79;100.00
83514;BME280;73447;53.262;10.424;2024-03-22T02:16:08;66514.81;;;-147.79;100.00
83514;BME280;73447;53.262;10.424;2024-03-22T02:19:32;66514.81;;;-147.79;100.00
83514;BME280;73447;53.262;10.424;2024-03-22T02:22:56;66514.81;;;-147.79;100.00
83514;BME280;73447;53.262;10.424;2024-03-22T02:26:20;66514.81;;;-147.79;100.00
83514;BME280;73447;53.262;10.424;2024-03-22T02:29:44;66514.81;;;-147.79;100.00
83514;BME280;73447;53.262;10.424;2024-03-22T02:33:08;66514.81;;;-147.79;100.00
83514;BME280;73447;53.262;10.424;2024-03-22T02:36:32;66514.81;;;-147.79;100.00
83514;BME280;73447;53.262;10.424;2024-03-22T02:39:56;66514.81;;;-147.79;100.00
83514;BME280;73447;53.262;10.424;2024-03-22T02:43:20;66514.81;;;-147.79;100.00
83514;BME280;73447;53.262;10.424;2024-03-22T02:46:45;66514.81;;;-147.79;100.00
83514;BME280;73447;53.262;10.424;2024-03-22T02:50:08;66514.81;;;-147.79;100.00
83514;BME280;73447;53.262;10.424;2024-03-22T02:53:32;66514.81;;;-147.79;100.00
83514;BME280;73447;53.262;10.424;2024-03-22T02:56:58;66514.81;;;-147.79;100.00
83514;BME280;73447;53.262;10.424;2024-03-22T03:00:25;66514.81;;;-147.79;100.00
83514;BME280;73447;53.262;10.424;2024-03-22T03:03:48;66514.81;;;-147.79;100.00
83514;BME280;73447;53.262;10.424;2024-03-22T03:07:12;66514.81;;;-147.79;100.00
83514;BME280;73447;53.262;10.424;2024-03-22T03:10:36;66514.81;;;-147.79;100.00
83514;BME280;73447;53.262;10.424;2024-03-22T03:14:00;66514.81;;;-147.79;100.00
83514;BME280;73447;53.262;10.424;2024-03-22T03:17:24;66514.81;;;-147.79;100.00
83514;BME280;73447;53.262;10.424;2024-03-22T03:20:48;66514.81;;;-147.79;100.00
83514;BME280;73447;53.262;10.424;2024-03-22T03:24:12;66514.81;;;-147.79;100.00
83514;BME280;73447;53.262;10.424;2024-03-22T03:27:36;66514.81;;;-147.79;100.00
83514;BME280;73447;53.262;10.424;2024-03-22T03:31:00;66514.81;;;-147.79;100.00
83514;BME280;73447;53.262;10.424;2024-03-22T03:34:23;66514.81;;;-147.79;100.00
83514;BME280;73447;53.262;10.424;2024-03-22T03:37:47;66514.81;;;-147.79;100.00
83514;BME280;73447;53.262;10.424;2024-03-22T03:41:11;66514.81;;;-147.79;100.00
83514;BME280;73447;53.262;10.424;2024-03-22T03:44:35;66514.81;;;-147.79;100.00
83514;BME280;73447;53.262;10.424;2024-03-22T03:48:00;66514.81;;;-147.79;100.00
83514;BME280;73447;53.262;10.424;2024-03-22T03:51:24;66514.81;;;-147.79;100.00
83514;BME280;73447;53.262;10.424;2024-03-22T03:54:47;66514.81;;;-147.79;100.00
83514;BME280;73447;53.262;10.424;2024-03-22T03:58:11;66514.81;;;-147.79;100.00
83514;BME280;73447;53.262;10.424;2024-03-22T04:01:35;66514.81;;;-147.79;100.00
83514;BME280;73447;53.262;10.424;2024-03-22T04:05:00;66514.81;;;-147.79;100.00
83514;BME280;73447;53.262;10.424;2024-03-22T04:08:27;66514.81;;;-147.79;100.00
83514;BME280;73447;53.262;10.424;2024-03-22T04:11:51;66514.81;;;-147.79;100.00
83514;BME280;73447;53.262;10.424;2024-03-22T04:15:15;66514.81;;;-147.79;100.00
83514;BME280;73447;53.262;10.424;2024-03-22T04:18:39;66514.81;;;-147.79;100.00
83514;BME280;73447;53.262;10.424;2024-03-22T04:22:03;66514.81;;;-147.79;100.00
83514;BME280;73447;53.262;10.424;2024-03-22T04:25:27;66514.81;;;-147.79;100.00
83514;BME280;73447;53.262;10.424;2024-03-22T04:28:51;66514.81;;;-147.79;100.00
83514;BME280;73447;53.262;10.424;2024-03-22T04:32:15;66514.81;;;-147.79;100.00
83514;BME280;73447;53.262;10.424;2024-03-22T04:35:45;66514.81;;;-147.79;100.00
83514;BME280;73447;53.262;10.424;2024-03-22T04:39:09;66514.81;;;-147.79;100.00
83514;BME280;73447;53.262;10.424;2024-03-22T04:42:33;66514.81;;;-147.79;100.00
83514;BME280;73447;53.262;10.424;2024-03-22T04:45:57;66514.81;;;-147.79;100.00
83514;BME280;73447;53.262;10.424;2024-03-22T04:49:21;66514.81;;;-147.79;100.00
83514;BME280;73447;53.262;10.424;2024-03-22T04:52:45;66514.81;;;-147.79;100.00
83514;BME280;73447;53.262;10.424;2024-03-22T04:56:09;66514.81;;;-147.79;100.00
83514;BME280;73447;53.262;10.424;2024-03-22T04:59:33;66514.81;;;-147.79;100.00
83514;BME280;73447;53.262;10.424;2024-03-22T05:02:57;66514.81;;;-147.79;100.00
83514;BME280;73447;53.262;10.424;2024-03-22T05:06:21;66514.81;;;-147.79;100.00
83514;BME280;73447;53.262;10.424;2024-03-22T05:09:45;66514.81;;;-147.79;100.00
83514;BME280;73447;53.262;10.424;2024-03-22T05:13:09;66514.81;;;-147.79;100.00
83514;BME280;73447;53.262;10.424;2024-03-22T05:16:32;66514.81;;;-147.79;100.00
83514;BME280;73447;53.262;10.424;2024-03-22T05:19:58;66514.81;;;-147.79;100.00
83514;BME280;73447;53.262;10.424;2024-03-22T05:23:21;66514.81;;;-147.79;100.00
83514;BME280;73447;53.262;10.424;2024-03-22T05:26:45;66514.81;;;-147.79;100.00
83514;BME280;73447;53.262;10.424;2024-03-22T05:30:09;66514.81;;;-147.79;100.00
83514;BME280;73447;53.262;10.424;2024-03-22T05:33:34;66514.81;;;-147.79;100.00
83514;BME280;73447;53.262;10.424;2024-03-22T05:36:57;66514.81;;;-147.79;100.00
83514;BME280;73447;53.262;10.424;2024-03-22T05:40:22;66514.81;;;-147.79;100.00
83514;BME280;73447;53.262;10.424;2024-03-22T05:43:46;66514.81;;;-147.79;100.00
83514;BME280;73447;53.262;10.424;2024-03-22T05:47:10;66514.81;;;-147.79;100.00
83514;BME280;73447;53.262;10.424;2024-03-22T05:50:34;66514.81;;;-147.79;100.00
83514;BME280;73447;53.262;10.424;2024-03-22T05:53:58;66514.81;;;-147.79;100.00
83514;BME280;73447;53.262;10.424;2024-03-22T05:57:22;66514.81;;;-147.79;100.00
83514;BME280;73447;53.262;10.424;2024-03-22T06:00:46;66514.81;;;-147.79;100.00
83514;BME280;73447;53.262;10.424;2024-03-22T06:04:11;66514.81;;;-147.79;100.00
83514;BME280;73447;53.262;10.424;2024-03-22T06:07:34;66514.81;;;-147.79;100.00
83514;BME280;73447;53.262;10.424;2024-03-22T06:11:06;66514.81;;;-147.79;100.00
83514;BME280;73447;53.262;10.424;2024-03-22T06:14:31;66514.81;;;-147.79;100.00
83514;BME280;73447;53.262;10.424;2024-03-22T06:17:55;66514.81;;;-147.79;100.00
83514;BME280;73447;53.262;10.424;2024-03-22T06:21:19;66514.81;;;-147.79;100.00
83514;BME280;73447;53.262;10.424;2024-03-22T06:24:48;66514.81;;;-147.79;100.00
83514;BME280;73447;53.262;10.424;2024-03-22T06:28:12;66514.81;;;-147.79;100.00
83514;BME280;73447;53.262;10.424;2024-03-22T06:31:36;66514.81;;;-147.79;100.00
83514;BME280;73447;53.262;10.424;2024-03-22T06:35:00;66514.81;;;-147.79;100.00
83514;BME280;73447;53.262;10.424;2024-03-22T06:38:24;66514.81;;;-147.79;100.00
83514;BME280;73447;53.262;10.424;2024-03-22T06:41:48;66514.81;;;-147.79;100.00
83514;BME280;73447;53.262;10.424;2024-03-22T06:45:12;66514.81;;;-147.79;100.00
83514;BME280;73447;53.262;10.424;2024-03-22T06:48:36;66514.81;;;-147.79;100.00
83514;BME280;73447;53.262;10.424;2024-03-22T06:52:00;66514.81;;;-147.79;100.00
83514;BME280;73447;53.262;10.424;2024-03-22T06:55:23;66514.81;;;-147.79;100.00
83514;BME280;73447;53.262;10.424;2024-03-22T06:58:48;66514.81;;;-147.79;100.00
83514;BME280;73447;53.262;10.424;2024-03-22T07:02:12;66514.81;;;-147.79;100.00
83514;BME280;73447;53.262;10.424;2024-03-22T07:05:37;66514.81;;;-147.79;100.00
83514;BME280;73447;53.262;10.424;2024-03-22T07:09:01;66514.81;;;-147.79;100.00
83514;BME280;73447;53.262;10.424;2024-03-22T07:12:27;66514.81;;;-147.79;100.00
83514;BME280;73447;53.262;10.424;2024-03-22T07:15:51;66514.81;;;-147.79;100.00
83514;BME280;73447;53.262;10.424;2024-03-22T07:19:15;66514.81;;;-147.79;100.00
83514;BME280;73447;53.262;10.424;2024-03-22T07:22:39;66514.81;;;-147.79;100.00
83514;BME280;73447;53.262;10.424;2024-03-22T07:26:03;66514.81;;;-147.79;100.00
83514;BME280;73447;53.262;10.424;2024-03-22T07:29:29;66514.81;;;-147.79;100.00
83514;BME280;73447;53.262;10.424;2024-03-22T07:32:53;66514.81;;;-147.79;100.00
83514;BME280;73447;53.262;10.424;2024-03-22T07:36:17;66514.81;;;-147.79;100.00
83514;BME280;73447;53.262;10.424;2024-03-22T07:39:41;66514.81;;;-147.79;100.00
83514;BME280;73447;53.262;10.424;2024-03-22T07:43:05;66514.81;;;-147.79;100.00
83514;BME280;73447;53.262;10.424;2024-03-22T07:46:35;66514.81;;;-147.79;100.00
83514;BME280;73447;53.262;10.424;2024-03-22T07:49:59;66514.81;;;-147.79;100.00
83514;BME280;73447;53.262;10.424;2024-03-22T07:53:23;66514.81;;;-147.79;100.00
83514;BME280;73447;53.262;10.424;2024-03-22T07:56:47;66514.81;;;-147.79;100.00
83514;BME280;73447;53.262;10.424;2024-03-22T08:00:11;66514.81;;;-147.79;100.00
83514;BME280;73447;53.262;10.424;2024-03-22T08:03:35;66514.81;;;-147.79;100.00
83514;BME280;73447;53.262;10.424;2024-03-22T08:06:31;101628.31;;;9.61;100.00
83514;BME280;73447;53.262;10.424;2024-03-22T08:09:55;66514.81;;;-147.79;100.00
83514;BME280;73447;53.262;10.424;2024-03-22T08:13:21;66514.81;;;-147.79;100.00
83514;BME280;73447;53.262;10.424;2024-03-22T08:16:45;66514.81;;;-147.79;100.00
83514;BME280;73447;53.262;10.424;2024-03-22T08:20:09;66514.81;;;-147.79;100.00
83514;BME280;73447;53.262;10.424;2024-03-22T08:23:33;66514.81;;;-147.79;100.00
83514;BME280;73447;53.262;10.424;2024-03-22T08:26:57;66514.81;;;-147.79;100.00
83514;BME280;73447;53.262;10.424;2024-03-22T08:30:23;66514.81;;;-147.79;100.00
83514;BME280;73447;53.262;10.424;2024-03-22T08:33:47;66514.81;;;-147.79;100.00
83514;BME280;73447;53.262;10.424;2024-03-22T08:37:10;66514.81;;;-147.79;100.00
83514;BME280;73447;53.262;10.424;2024-03-22T08:40:35;66514.81;;;-147.79;100.00
83514;BME280;73447;53.262;10.424;2024-03-22T08:43:00;101330.69;;;9.56;94.03
83514;BME280;73447;53.262;10.424;2024-03-22T08:46:25;66514.81;;;-147.79;100.00
83514;BME280;73447;53.262;10.424;2024-03-22T08:49:05;101330.69;;;9.56;94.03
83514;BME280;73447;53.262;10.424;2024-03-22T08:52:29;66514.81;;;-147.79;100.00
83514;BME280;73447;53.262;10.424;2024-03-22T08:55:26;101330.69;;;9.56;94.03
83514;BME280;73447;53.262;10.424;2024-03-22T08:57:52;101308.28;;;9.37;98.21
83514;BME280;73447;53.262;10.424;2024-03-22T09:00:18;101309.47;;;9.41;98.67
83514;BME280;73447;53.262;10.424;2024-03-22T09:02:43;101306.50;;;9.49;97.81
83514;BME280;73447;53.262;10.424;2024-03-22T09:05:08;101311.00;;;9.55;97.49
83514;BME280;73447;53.262;10.424;2024-03-22T09:07:34;101300.16;;;9.62;97.43
83514;BME280;73447;53.262;10.424;2024-03-22T09:09:59;101307.81;;;9.40;97.96
83514;BME280;73447;53.262;10.424;2024-03-22T09:12:25;101300.28;;;9.49;98.04
83514;BME280;73447;53.262;10.424;2024-03-22T09:14:50;101291.09;;;9.31;99.42
83514;BME280;73447;53.262;10.424;2024-03-22T09:17:15;101291.94;;;9.50;98.77
83514;BME280;73447;53.262;10.424;2024-03-22T09:19:41;101294.91;;;9.23;99.46
83514;BME280;73447;53.262;10.424;2024-03-22T09:22:06;101290.00;;;9.39;98.32
83514;BME280;73447;53.262;10.424;2024-03-22T09:24:32;101288.34;;;9.38;99.39
83514;BME280;73447;53.262;10.424;2024-03-22T09:26:57;101289.03;;;9.52;98.09
83514;BME280;73447;53.262;10.424;2024-03-22T09:29:24;101280.72;;;9.53;98.11
83514;BME280;73447;53.262;10.424;2024-03-22T09:31:49;101277.56;;;9.38;99.16
83514;BME280;73447;53.262;10.424;2024-03-22T09:34:16;101274.00;;;9.44;99.61
83514;BME280;73447;53.262;10.424;2024-03-22T09:36:41;101268.00;;;9.42;99.94
83514;BME280;73447;53.262;10.424;2024-03-22T09:39:07;101267.81;;;9.62;98.65
83514;BME280;73447;53.262;10.424;2024-03-22T09:41:39;101258.50;;;9.76;98.40
83514;BME280;73447;53.262;10.424;2024-03-22T09:44:06;101260.22;;;9.89;97.05
83514;BME280;73447;53.262;10.424;2024-03-22T09:46:32;101261.47;;;9.87;96.68
83514;BME280;73447;53.262;10.424;2024-03-22T09:49:00;101259.31;;;9.77;96.88
83514;BME280;73447;53.262;10.424;2024-03-22T09:51:27;101251.22;;;9.58;98.01
83514;BME280;73447;53.262;10.424;2024-03-22T09:53:53;101258.06;;;9.79;96.62
83514;BME280;73447;53.262;10.424;2024-03-22T09:56:20;101254.38;;;9.74;97.07
83514;BME280;73447;53.262;10.424;2024-03-22T09:58:46;101248.84;;;9.87;96.56
83514;BME280;73447;53.262;10.424;2024-03-22T10:01:12;101242.84;;;9.66;97.92
83514;BME280;73447;53.262;10.424;2024-03-22T10:03:37;101235.81;;;9.65;97.59
83514;BME280;73447;53.262;10.424;2024-03-22T10:06:03;101233.25;;;9.89;97.35
83514;BME280;73447;53.262;10.424;2024-03-22T10:08:29;101233.13;;;9.65;98.36
83514;BME280;73447;53.262;10.424;2024-03-22T10:10:55;101247.19;;;9.68;98.00
83514;BME280;73447;53.262;10.424;2024-03-22T10:13:20;101236.09;;;9.76;97.70
83514;BME280;73447;53.262;10.424;2024-03-22T10:15:46;101227.09;;;9.63;98.57
83514;BME280;73447;53.262;10.424;2024-03-22T10:18:12;101238.34;;;9.79;98.08
83514;BME280;73447;53.262;10.424;2024-03-22T10:20:37;101228.31;;;9.68;97.52
83514;BME280;73447;53.262;10.424;2024-03-22T10:23:03;101220.22;;;9.86;96.24
83514;BME280;73447;53.262;10.424;2024-03-22T10:25:29;101220.84;;;10.00;95.53
83514;BME280;73447;53.262;10.424;2024-03-22T10:27:55;101209.97;;;10.07;94.69
83514;BME280;73447;53.262;10.424;2024-03-22T10:30:21;101217.59;;;9.79;95.35
83514;BME280;73447;53.262;10.424;2024-03-22T10:32:48;101222.47;;;9.71;96.61
83514;BME280;73447;53.262;10.424;2024-03-22T10:35:15;101217.88;;;9.90;96.65
83514;BME280;73447;53.262;10.424;2024-03-22T10:37:40;101215.41;;;9.88;96.32
83514;BME280;73447;53.262;10.424;2024-03-22T10:40:07;101214.50;;;9.94;96.37
83514;BME280;73447;53.262;10.424;2024-03-22T10:42:37;101216.47;;;9.87;96.55
83514;BME280;73447;53.262;10.424;2024-03-22T10:45:04;101209.25;;;9.99;95.95
83514;BME280;73447;53.262;10.424;2024-03-22T10:47:32;101213.75;;;10.06;95.30
83514;BME280;73447;53.262;10.424;2024-03-22T10:50:08;101220.53;;;10.08;95.67
83514;BME280;73447;53.262;10.424;2024-03-22T10:53:03;101213.75;;;10.06;95.32
83514;BME280;73447;53.262;10.424;2024-03-22T10:55:30;101211.22;;;9.92;95.62
83514;BME280;73447;53.262;10.424;2024-03-22T10:57:58;101215.72;;;9.80;95.31
83514;BME280;73447;53.262;10.424;2024-03-22T11:00:30;101212.53;;;10.01;95.15
83514;BME280;73447;53.262;10.424;2024-03-22T11:02:56;101208.78;;;10.02;94.62
83514;BME280;73447;53.262;10.424;2024-03-22T11:05:22;101204.56;;;10.07;94.23
83514;BME280;73447;53.262;10.424;2024-03-22T11:07:47;101210.72;;;10.14;95.07
83514;BME280;73447;53.262;10.424;2024-03-22T11:10:13;101214.91;;;10.10;94.92
83514;BME280;73447;53.262;10.424;2024-03-22T11:12:42;101191.13;;;10.18;94.59
83514;BME280;73447;53.262;10.424;2024-03-22T11:15:10;101202.00;;;10.12;95.47
83514;BME280;73447;53.262;10.424;2024-03-22T11:17:37;101195.84;;;10.23;95.14
83514;BME280;73447;53.262;10.424;2024-03-22T11:20:03;101190.72;;;10.33;94.78
83514;BME280;73447;53.262;10.424;2024-03-22T11:22:28;101187.75;;;10.23;95.31
83514;BME280;73447;53.262;10.424;2024-03-22T11:24:54;101195.91;;;10.35;94.69
83514;BME280;73447;53.262;10.424;2024-03-22T11:27:19;101193.69;;;10.44;94.96
83514;BME280;73447;53.262;10.424;2024-03-22T11:29:45;101187.97;;;10.64;94.42
83514;BME280;73447;53.262;10.424;2024-03-22T11:32:12;101187.06;;;10.70;93.99
83514;BME280;73447;53.262;10.424;2024-03-22T11:34:38;101181.75;;;10.63;92.86
83514;BME280;73447;53.262;10.424;2024-03-22T11:37:05;101188.94;;;10.81;93.06
83514;BME280;73447;53.262;10.424;2024-03-22T11:39:33;101189.53;;;10.71;93.97
83514;BME280;73447;53.262;10.424;2024-03-22T11:42:00;101180.84;;;10.69;93.63
83514;BME280;73447;53.262;10.424;2024-03-22T11:44:26;101193.34;;;10.40;93.82
83514;BME280;73447;53.262;10.424;2024-03-22T11:46:52;101184.69;;;10.62;94.14
83514;BME280;73447;53.262;10.424;2024-03-22T11:49:17;101184.13;;;10.29;94.15
83514;BME280;73447;53.262;10.424;2024-03-22T11:51:45;101181.72;;;10.39;95.37
83514;BME280;73447;53.262;10.424;2024-03-22T11:54:10;101173.03;;;10.37;95.71
83514;BME280;73447;53.262;10.424;2024-03-22T11:56:36;101185.91;;;10.89;91.72
83514;BME280;73447;53.262;10.424;2024-03-22T11:59:01;101171.66;;;11.18;91.56
83514;BME280;73447;53.262;10.424;2024-03-22T12:01:29;101172.84;;;11.22;90.08
83514;BME280;73447;53.262;10.424;2024-03-22T12:03:55;101168.16;;;11.05;89.97
83514;BME280;73447;53.262;10.424;2024-03-22T12:06:20;101173.09;;;10.85;90.68
83514;BME280;73447;53.262;10.424;2024-03-22T12:08:46;101171.56;;;10.89;89.61
83514;BME280;73447;53.262;10.424;2024-03-22T12:11:12;101172.13;;;10.67;90.06
83514;BME280;73447;53.262;10.424;2024-03-22T12:13:38;101164.53;;;10.76;91.18
83514;BME280;73447;53.262;10.424;2024-03-22T12:16:04;101162.63;;;11.12;89.43
83514;BME280;73447;53.262;10.424;2024-03-22T12:18:29;101163.41;;;11.24;88.76
83514;BME280;73447;53.262;10.424;2024-03-22T12:20:55;101160.81;;;11.29;90.05
83514;BME280;73447;53.262;10.424;2024-03-22T12:23:20;101154.75;;;10.99;90.45
83514;BME280;73447;53.262;10.424;2024-03-22T12:25:46;101150.63;;;10.49;90.09
83514;BME280;73447;53.262;10.424;2024-03-22T12:28:11;101148.53;;;10.51;91.24
83514;BME280;73447;53.262;10.424;2024-03-22T12:30:37;101137.41;;;10.29;93.51
83514;BME280;73447;53.262;10.424;2024-03-22T12:33:02;101142.66;;;10.24;93.64
83514;BME280;73447;53.262;10.424;2024-03-22T12:35:28;101142.97;;;10.03;94.64
83514;BME280;73447;53.262;10.424;2024-03-22T12:37:57;101135.16;;;10.14;95.39
83514;BME280;73447;53.262;10.424;2024-03-22T12:40:23;101138.06;;;10.43;93.21
83514;BME280;73447;53.262;10.424;2024-03-22T12:42:48;101131.94;;;10.47;92.68
83514;BME280;73447;53.262;10.424;2024-03-22T12:45:14;101132.78;;;10.48;93.15
83514;BME280;73447;53.262;10.424;2024-03-22T12:47:39;101130.31;;;10.34;92.75
83514;BME280;73447;53.262;10.424;2024-03-22T12:50:05;101133.34;;;10.38;92.22
83514;BME280;73447;53.262;10.424;2024-03-22T12:52:31;101137.72;;;10.39;92.28
83514;BME280;73447;53.262;10.424;2024-03-22T12:54:56;101130.91;;;10.48;92.05
83514;BME280;73447;53.262;10.424;2024-03-22T12:57:22;101135.50;;;10.83;90.75
83514;BME280;73447;53.262;10.424;2024-03-22T12:59:47;101132.56;;;10.97;88.49
83514;BME280;73447;53.262;10.424;2024-03-22T13:02:13;101140.19;;;11.00;89.04
83514;BME280;73447;53.262;10.424;2024-03-22T13:04:38;101138.66;;;10.80;88.73
83514;BME280;73447;53.262;10.424;2024-03-22T13:07:03;101129.78;;;11.32;87.18
83514;BME280;73447;53.262;10.424;2024-03-22T13:09:29;101122.38;;;11.39;85.80
83514;BME280;73447;53.262;10.424;2024-03-22T13:11:54;101127.34;;;11.59;84.71
83514;BME280;73447;53.262;10.424;2024-03-22T13:14:19;101124.13;;;11.45;84.22
83514;BME280;73447;53.262;10.424;2024-03-22T13:16:46;101123.66;;;11.48;84.56
83514;BME280;73447;53.262;10.424;2024-03-22T13:19:11;101121.59;;;11.27;84.86
83514;BME280;73447;53.262;10.424;2024-03-22T13:21:39;101128.66;;;11.04;86.32
83514;BME280;73447;53.262;10.424;2024-03-22T13:24:04;101114.09;;;11.05;87.13
83514;BME280;73447;53.262;10.424;2024-03-22T13:26:30;101118.69;;;10.93;87.79
83514;BME280;73447;53.262;10.424;2024-03-22T13:28:55;101123.03;;;10.47;89.65
83514;BME280;73447;53.262;10.424;2024-03-22T13:31:21;101115.38;;;10.32;90.67
83514;BME280;73447;53.262;10.424;2024-03-22T13:33:46;101111.47;;;10.16;92.14
83514;BME280;73447;53.262;10.424;2024-03-22T13:36:13;101110.47;;;9.98;92.68
83514;BME280;73447;53.262;10.424;2024-03-22T13:38:38;101103.06;;;9.94;93.24
83514;BME280;73447;53.262;10.424;2024-03-22T13:41:03;101101.22;;;10.06;93.14
83514;BME280;73447;53.262;10.424;2024-03-22T13:43:31;101089.50;;;10.12;91.92
83514;BME280;73447;53.262;10.424;2024-03-22T13:45:56;101089.81;;;10.46;89.99
83514;BME280;73447;53.262;10.424;2024-03-22T13:48:23;101088.28;;;10.62;89.44
83514;BME280;73447;53.262;10.424;2024-03-22T13:50:53;101095.81;;;10.60;88.56
83514;BME280;73447;53.262;10.424;2024-03-22T13:53:20;101095.44;;;10.68;89.32
83514;BME280;73447;53.262;10.424;2024-03-22T13:55:49;101094.16;;;10.59;88.50
83514;BME280;73447;53.262;10.424;2024-03-22T13:58:14;101089.59;;;10.71;87.83
83514;BME280;73447;53.262;10.424;2024-03-22T14:00:40;101085.69;;;10.67;87.91
83514;BME280;73447;53.262;10.424;2024-03-22T14:03:05;101081.94;;;10.68;88.42
83514;BME280;73447;53.262;10.424;2024-03-22T14:05:31;101087.78;;;10.89;86.99
83514;BME280;73447;53.262;10.424;2024-03-22T14:07:58;101086.66;;;10.73;87.46
83514;BME280;73447;53.262;10.424;2024-03-22T14:10:23;101085.56;;;10.74;86.96
83514;BME280;73447;53.262;10.424;2024-03-22T14:12:50;101084.63;;;10.80;87.45
83514;BME280;73447;53.262;10.424;2024-03-22T14:15:15;101082.53;;;10.70;87.04
83514;BME280;73447;53.262;10.424;2024-03-22T14:17:41;101082.16;;;10.79;86.88
83514;BME280;73447;53.262;10.424;2024-03-22T14:20:07;101077.22;;;10.75;87.24
83514;BME280;73447;53.262;10.424;2024-03-22T14:22:40;101069.56;;;11.08;86.38
83514;BME280;73447;53.262;10.424;2024-03-22T14:25:07;101077.81;;;11.01;86.44
83514;BME280;73447;53.262;10.424;2024-03-22T14:27:34;101069.75;;;11.30;85.34
83514;BME280;73447;53.262;10.424;2024-03-22T14:30:00;101065.03;;;11.25;84.87
83514;BME280;73447;53.262;10.424;2024-03-22T14:32:25;101067.03;;;11.30;85.76
83514;BME280;73447;53.262;10.424;2024-03-22T14:34:51;101060.53;;;11.31;84.26
83514;BME280;73447;53.262;10.424;2024-03-22T14:37:17;101067.81;;;11.02;86.32
83514;BME280;73447;53.262;10.424;2024-03-22T14:39:42;101052.97;;;11.04;86.32
83514;BME280;73447;53.262;10.424;2024-03-22T14:42:08;101045.59;;;11.11;85.73
83514;BME280;73447;53.262;10.424;2024-03-22T14:44:33;101037.09;;;11.48;85.07
83514;BME280;73447;53.262;10.424;2024-03-22T14:46:59;101042.50;;;11.20;87.30
83514;BME280;73447;53.262;10.424;2024-03-22T14:49:24;101039.72;;;11.43;85.57
83514;BME280;73447;53.262;10.424;2024-03-22T14:51:50;101036.44;;;11.41;85.55
83514;BME280;73447;53.262;10.424;2024-03-22T14:54:16;101036.44;;;11.41;85.52
83514;BME280;73447;53.262;10.424;2024-03-22T14:56:41;101038.34;;;11.29;86.65